Time;durP1;ratioP1;P1;durP2;ratioP2;P2;SDS_P1;SDS_P2;PMS_P1;PMS_P2;Temp;Humidity;BMP_temperature;BMP_pressure;BME280_temperature;BME280_humidity;BME280_pressure;Samples;Min_cycle;Max_cycle;Signal;HPM_P1;HPM_P2
2023/10/21 00:02:02;;;;;;;1.93;1.60;;;22.10;46.40;;;;;;4957512;28;20237;-79
2023/10/21 00:04:28;;;;;;;1.60;1.50;;;22.10;46.40;;;;;;4960864;28;20486;-79
2023/10/21 00:06:54;;;;;;;1.40;1.30;;;22.10;46.40;;;;;;4967926;28;21155;-80
2023/10/21 00:09:19;;;;;;;1.40;1.30;;;22.10;46.30;;;;;;4958140;28;20239;-79
2023/10/21 00:11:45;;;;;;;1.53;1.43;;;22.10;46.40;;;;;;4963762;28;20213;-79
2023/10/21 00:14:10;;;;;;;1.40;1.30;;;22.10;46.40;;;;;;4969983;28;20217;-79
2023/10/21 00:16:36;;;;;;;1.50;1.40;;;22.10;46.30;;;;;;4956791;28;20683;-79
2023/10/21 00:19:01;;;;;;;1.77;1.40;;;22.10;46.40;;;;;;4955400;28;20679;-79
2023/10/21 00:21:27;;;;;;;1.63;1.53;;;22.10;46.40;;;;;;4962797;28;20593;-79
2023/10/21 00:23:52;;;;;;;1.40;1.30;;;22.10;46.40;;;;;;4977091;28;20699;-79
2023/10/21 00:26:18;;;;;;;1.40;1.30;;;22.10;46.50;;;;;;4965120;28;20445;-82
2023/10/21 00:28:46;;;;;;;1.40;1.30;;;22.10;46.50;;;;;;4967151;28;20704;-83
2023/10/21 00:31:12;;;;;;;1.73;1.43;;;22.10;46.40;;;;;;4960376;28;20307;-83
2023/10/21 00:33:38;;;;;;;1.47;1.37;;;22.10;46.50;;;;;;4963623;28;20454;-83
2023/10/21 00:36:03;;;;;;;1.60;1.50;;;22.10;46.40;;;;;;4965376;28;20228;-83
2023/10/21 00:38:29;;;;;;;1.70;1.60;;;22.10;46.50;;;;;;4965561;28;20237;-83
2023/10/21 00:40:56;;;;;;;1.60;1.50;;;22.10;46.50;;;;;;4957892;28;20204;-83
2023/10/21 00:43:35;;;;;;;1.40;1.30;;;22.10;46.40;;;;;;4961409;28;20581;-84
2023/10/21 00:46:06;;;;;;;1.60;1.50;;;22.10;46.50;;;;;;4965111;28;20557;-83
2023/10/21 00:48:32;;;;;;;1.53;1.43;;;22.10;46.50;;;;;;4966436;28;20964;-84
2023/10/21 00:50:58;;;;;;;1.50;1.40;;;22.00;46.40;;;;;;4963546;28;20459;-80
2023/10/21 00:53:24;;;;;;;1.40;1.30;;;22.00;46.50;;;;;;4963391;28;20649;-84
2023/10/21 00:55:51;;;;;;;1.60;1.50;;;22.10;46.50;;;;;;4963020;28;20572;-82
2023/10/21 00:58:18;;;;;;;1.30;1.20;;;22.00;46.50;;;;;;4961178;28;20653;-84
2023/10/21 01:00:44;;;;;;;1.60;1.50;;;22.00;46.40;;;;;;4964082;28;21168;-83
2023/10/21 01:03:10;;;;;;;1.40;1.30;;;22.00;46.40;;;;;;4963111;28;20554;-81
2023/10/21 01:05:35;;;;;;;1.37;1.27;;;22.00;46.30;;;;;;4953439;28;20280;-84
2023/10/21 01:08:01;;;;;;;1.20;1.10;;;22.00;46.50;;;;;;4960421;28;20248;-82
2023/10/21 01:10:27;;;;;;;1.40;1.30;;;22.00;46.50;;;;;;4962432;28;20288;-79
2023/10/21 01:12:52;;;;;;;1.60;1.50;;;22.00;46.50;;;;;;4958119;28;20225;-78
2023/10/21 01:15:18;;;;;;;1.40;1.30;;;22.00;46.50;;;;;;4963637;28;20991;-84
2023/10/21 01:17:50;;;;;;;1.67;1.57;;;22.00;46.40;;;;;;4963576;28;20936;-80
2023/10/21 01:20:17;;;;;;;1.50;1.40;;;22.00;46.50;;;;;;4960720;28;20223;-84
2023/10/21 01:22:45;;;;;;;1.40;1.30;;;22.00;46.40;;;;;;4955511;28;20463;-84
2023/10/21 01:25:11;;;;;;;1.50;1.40;;;22.00;46.50;;;;;;4960324;28;21013;-79
2023/10/21 01:27:37;;;;;;;1.40;1.30;;;22.00;46.50;;;;;;4964494;28;20442;-84
2023/10/21 01:30:05;;;;;;;1.40;1.30;;;22.00;46.50;;;;;;4958084;28;20229;-83
2023/10/21 01:32:31;;;;;;;1.63;1.53;;;22.00;46.50;;;;;;4963618;28;20294;-84
2023/10/21 01:34:57;;;;;;;1.10;1.00;;;22.00;46.50;;;;;;4949657;28;20994;-79
2023/10/21 01:37:22;;;;;;;1.37;1.27;;;22.00;46.50;;;;;;4965574;28;20489;-80
2023/10/21 01:39:48;;;;;;;1.67;1.50;;;22.00;46.50;;;;;;4961154;28;20222;-79
2023/10/21 01:42:13;;;;;;;1.40;1.30;;;22.00;46.50;;;;;;4965173;28;20781;-79
2023/10/21 01:44:39;;;;;;;1.30;1.20;;;22.00;46.50;;;;;;4963650;28;20643;-80
2023/10/21 01:47:05;;;;;;;1.40;1.30;;;22.00;46.50;;;;;;4963006;28;20735;-79
2023/10/21 01:49:31;;;;;;;1.43;1.33;;;22.00;46.50;;;;;;4962247;28;20367;-79
2023/10/21 01:51:57;;;;;;;1.23;1.13;;;22.00;46.50;;;;;;4960990;28;20307;-79
2023/10/21 01:54:23;;;;;;;1.63;1.50;;;22.00;46.40;;;;;;4966614;28;20501;-79
2023/10/21 01:56:48;;;;;;;1.50;1.40;;;22.00;46.50;;;;;;4968321;28;20772;-81
2023/10/21 01:59:14;;;;;;;1.40;1.30;;;22.00;46.50;;;;;;4959706;28;20228;-78
2023/10/21 02:01:41;;;;;;;1.30;1.20;;;22.00;46.50;;;;;;4957308;28;20652;-82
2023/10/21 02:04:06;;;;;;;1.40;1.30;;;22.00;46.40;;;;;;4965199;28;20236;-82
2023/10/21 02:06:32;;;;;;;1.30;1.20;;;22.00;46.50;;;;;;4962246;28;20965;-84
2023/10/21 02:08:57;;;;;;;1.20;1.10;;;22.00;46.50;;;;;;4963005;28;20605;-79
2023/10/21 02:11:26;;;;;;;1.20;1.10;;;22.00;46.50;;;;;;4960506;28;20223;-83
2023/10/21 02:13:51;;;;;;;1.40;1.30;;;22.00;46.50;;;;;;4963058;28;20230;-83
2023/10/21 02:16:17;;;;;;;1.30;1.20;;;22.00;46.50;;;;;;4963120;28;20462;-79
2023/10/21 02:18:43;;;;;;;1.37;1.20;;;22.00;46.50;;;;;;4968268;28;20339;-83
2023/10/21 02:21:09;;;;;;;1.27;1.17;;;22.00;46.50;;;;;;4965803;28;20528;-82
2023/10/21 02:23:35;;;;;;;1.37;1.27;;;22.00;46.60;;;;;;4961780;28;20741;-83
2023/10/21 02:26:04;;;;;;;1.37;1.27;;;22.00;46.50;;;;;;4962372;28;20247;-81
2023/10/21 02:28:30;;;;;;;1.20;1.10;;;22.00;46.50;;;;;;4971507;28;20274;-79
2023/10/21 02:30:57;;;;;;;1.30;1.10;;;22.00;46.50;;;;;;4961860;28;20541;-83
2023/10/21 02:33:23;;;;;;;1.27;1.17;;;22.00;46.50;;;;;;4961591;28;20447;-83
2023/10/21 02:35:53;;;;;;;1.33;1.23;;;22.00;46.50;;;;;;4966362;28;20965;-79
2023/10/21 02:38:22;;;;;;;1.40;1.30;;;22.00;46.50;;;;;;4965910;28;21011;-82
2023/10/21 02:40:48;;;;;;;1.40;1.30;;;22.00;46.40;;;;;;4971530;28;20471;-78
2023/10/21 02:43:14;;;;;;;1.20;1.10;;;22.00;46.50;;;;;;4965343;28;20548;-82
2023/10/21 02:45:39;;;;;;;1.10;1.00;;;22.00;46.50;;;;;;4967080;28;20505;-81
2023/10/21 02:48:06;;;;;;;1.30;1.20;;;22.00;46.50;;;;;;4958586;28;20227;-82
2023/10/21 02:50:31;;;;;;;1.00;1.00;;;22.00;46.50;;;;;;4957740;28;20233;-81
2023/10/21 02:52:57;;;;;;;1.20;1.10;;;22.00;46.50;;;;;;4959526;28;20484;-78
2023/10/21 02:55:25;;;;;;;1.20;1.10;;;22.00;46.50;;;;;;4962173;28;20236;-79
2023/10/21 02:57:50;;;;;;;1.37;1.27;;;22.00;46.50;;;;;;4966168;28;20220;-81
2023/10/21 03:00:17;;;;;;;1.30;1.20;;;22.00;46.40;;;;;;4961137;28;20520;-82
2023/10/21 03:02:43;;;;;;;1.20;1.10;;;22.00;46.50;;;;;;4960749;28;20229;-82
2023/10/21 03:05:09;;;;;;;1.20;1.10;;;22.00;46.50;;;;;;4967484;28;20478;-81
2023/10/21 03:07:35;;;;;;;1.30;1.20;;;22.00;46.50;;;;;;4961735;28;21317;-83
2023/10/21 03:10:01;;;;;;;1.40;1.30;;;22.00;46.50;;;;;;4959175;28;20379;-79
2023/10/21 03:12:27;;;;;;;1.20;1.10;;;22.00;46.40;;;;;;4969214;28;20695;-81
2023/10/21 03:14:52;;;;;;;1.10;1.00;;;22.00;46.50;;;;;;4960450;28;20276;-81
2023/10/21 03:17:19;;;;;;;1.10;1.10;;;22.00;46.50;;;;;;4954535;28;20236;-83
2023/10/21 03:19:45;;;;;;;1.30;1.20;;;22.00;46.50;;;;;;4956163;28;20268;-83
2023/10/21 03:22:10;;;;;;;1.20;1.10;;;22.00;46.50;;;;;;4972307;28;20843;-79
2023/10/21 03:24:36;;;;;;;1.37;1.27;;;21.90;46.30;;;;;;4949953;28;20235;-83
2023/10/21 03:27:02;;;;;;;1.30;1.13;;;22.00;46.40;;;;;;4962655;28;20311;-82
2023/10/21 03:29:27;;;;;;;1.40;1.30;;;22.00;46.50;;;;;;4961478;28;20245;-79
2023/10/21 03:31:53;;;;;;;1.50;1.10;;;21.90;46.30;;;;;;4962394;28;20628;-83
2023/10/21 03:34:18;;;;;;;1.17;1.07;;;22.00;46.50;;;;;;4956146;28;20235;-79
2023/10/21 03:36:44;;;;;;;1.30;1.20;;;22.00;46.50;;;;;;4958948;28;20221;-82
2023/10/21 03:39:09;;;;;;;1.23;1.13;;;21.90;46.30;;;;;;4955034;28;21316;-78
2023/10/21 03:41:35;;;;;;;1.67;1.30;;;22.00;46.50;;;;;;4962638;28;20717;-80
2023/10/21 03:44:01;;;;;;;1.40;1.30;;;21.90;46.30;;;;;;4960511;28;20279;-82
2023/10/21 03:46:27;;;;;;;1.20;1.10;;;21.90;46.30;;;;;;4963749;28;20779;-82
2023/10/21 03:48:52;;;;;;;1.37;1.27;;;21.90;46.30;;;;;;4962607;28;20549;-79
2023/10/21 03:51:18;;;;;;;1.17;1.07;;;22.00;46.50;;;;;;4958015;28;20220;-83
2023/10/21 03:53:43;;;;;;;1.27;1.17;;;21.90;46.30;;;;;;4965646;28;20716;-81
2023/10/21 03:56:09;;;;;;;1.10;1.00;;;22.00;46.50;;;;;;4966769;28;20220;-82
2023/10/21 03:58:36;;;;;;;1.20;1.10;;;21.90;46.30;;;;;;4968859;28;20654;-79
2023/10/21 04:01:02;;;;;;;1.30;1.20;;;21.90;46.30;;;;;;4954806;28;20442;-80
2023/10/21 04:03:28;;;;;;;1.10;1.00;;;21.90;46.30;;;;;;4956005;28;20461;-83
2023/10/21 04:05:55;;;;;;;1.17;1.07;;;21.90;46.30;;;;;;4963089;28;21413;-75
2023/10/21 04:08:21;;;;;;;1.40;1.30;;;21.90;46.30;;;;;;4958590;28;20228;-76
2023/10/21 04:10:47;;;;;;;1.10;1.00;;;21.90;46.30;;;;;;4959544;28;20462;-75
2023/10/21 04:13:13;;;;;;;1.17;1.07;;;21.90;46.30;;;;;;4964333;28;20525;-75
2023/10/21 04:15:39;;;;;;;1.20;1.10;;;21.90;46.30;;;;;;4960758;28;20621;-79
2023/10/21 04:18:05;;;;;;;1.20;1.10;;;21.90;46.30;;;;;;4960105;28;20245;-79
2023/10/21 04:20:33;;;;;;;1.10;1.00;;;21.90;46.30;;;;;;4963574;28;20622;-79
2023/10/21 04:22:59;;;;;;;2.47;1.10;;;21.90;46.30;;;;;;4963744;28;20244;-79
2023/10/21 04:25:26;;;;;;;1.00;1.00;;;21.90;46.30;;;;;;4973477;28;21001;-79
2023/10/21 04:27:52;;;;;;;1.20;1.10;;;21.90;46.30;;;;;;4972644;28;20459;-79
2023/10/21 04:30:17;;;;;;;1.30;1.10;;;21.90;46.30;;;;;;4963503;28;20557;-79
2023/10/21 04:32:43;;;;;;;1.20;1.10;;;21.90;46.30;;;;;;4963675;28;20241;-81
2023/10/21 04:35:08;;;;;;;0.90;0.90;;;21.90;46.30;;;;;;4954228;28;20692;-79
2023/10/21 04:37:35;;;;;;;1.20;1.10;;;21.90;46.30;;;;;;4963958;28;20233;-79
2023/10/21 04:40:01;;;;;;;0.93;0.93;;;21.90;46.30;;;;;;4950105;28;20256;-80
2023/10/21 04:42:26;;;;;;;1.20;1.10;;;21.90;46.30;;;;;;4958021;28;20608;-78
2023/10/21 04:44:52;;;;;;;0.93;0.93;;;21.90;46.30;;;;;;4962484;28;20239;-78
2023/10/21 04:47:18;;;;;;;1.40;1.10;;;21.90;46.20;;;;;;4971101;28;20711;-77
2023/10/21 04:49:44;;;;;;;1.00;0.90;;;21.90;46.30;;;;;;4970092;28;20459;-78
2023/10/21 04:52:16;;;;;;;2.03;1.20;;;21.90;46.10;;;;;;4967502;28;20294;-77
2023/10/21 04:54:42;;;;;;;1.40;1.30;;;22.00;46.10;;;;;;4962552;28;20224;-78
2023/10/21 04:57:09;;;;;;;1.10;1.00;;;22.00;46.20;;;;;;4963348;28;20520;-78
2023/10/21 04:59:34;;;;;;;1.20;1.10;;;22.00;46.10;;;;;;4971967;28;20224;-77
2023/10/21 05:02:00;;;;;;;1.10;1.00;;;22.00;46.10;;;;;;4976523;28;20458;-78
2023/10/21 05:04:25;;;;;;;1.00;1.00;;;22.00;46.00;;;;;;4972999;28;20319;-78
2023/10/21 05:06:51;;;;;;;1.07;0.97;;;22.00;46.10;;;;;;4957804;28;20217;-78
2023/10/21 05:09:17;;;;;;;0.97;0.97;;;22.00;46.10;;;;;;4964468;28;20763;-77
2023/10/21 05:11:42;;;;;;;1.10;1.00;;;22.00;46.00;;;;;;4972931;28;20260;-78
2023/10/21 05:14:08;;;;;;;1.23;1.13;;;22.00;46.10;;;;;;4966596;28;20489;-78
2023/10/21 05:16:34;;;;;;;1.10;1.00;;;22.00;46.00;;;;;;4976407;28;20223;-77
2023/10/21 05:18:59;;;;;;;1.30;1.10;;;22.00;45.90;;;;;;4971788;28;20216;-78
2023/10/21 05:21:25;;;;;;;1.60;0.90;;;22.00;45.90;;;;;;4969407;28;20216;-77
2023/10/21 05:23:51;;;;;;;1.00;1.00;;;22.00;45.90;;;;;;4971599;28;20228;-77
2023/10/21 05:26:18;;;;;;;0.97;0.90;;;22.00;45.90;;;;;;4976999;28;20743;-80
2023/10/21 05:28:44;;;;;;;1.00;1.00;;;22.00;45.90;;;;;;4974123;28;21446;-78
2023/10/21 05:31:10;;;;;;;1.10;1.00;;;22.00;45.90;;;;;;4973197;28;20917;-79
2023/10/21 05:33:36;;;;;;;1.17;1.07;;;22.00;45.90;;;;;;4974032;28;20558;-80
2023/10/21 05:36:01;;;;;;;0.97;0.93;;;22.00;45.90;;;;;;4965001;28;20236;-78
2023/10/21 05:38:27;;;;;;;1.20;1.10;;;22.00;45.90;;;;;;4970415;28;20794;-75
2023/10/21 05:40:53;;;;;;;1.10;1.00;;;22.00;45.90;;;;;;4968383;28;20224;-75
2023/10/21 05:43:18;;;;;;;0.80;0.80;;;22.00;45.90;;;;;;4956743;28;20219;-75
2023/10/21 05:45:44;;;;;;;1.10;1.00;;;22.00;45.90;;;;;;4964891;28;20675;-76
2023/10/21 05:48:10;;;;;;;1.20;1.10;;;22.00;45.90;;;;;;4960841;28;20232;-75
2023/10/21 05:50:36;;;;;;;1.03;0.93;;;22.00;45.90;;;;;;4959703;28;20308;-75
2023/10/21 05:53:03;;;;;;;1.10;1.00;;;22.00;45.80;;;;;;4961999;28;20456;-76
2023/10/21 05:55:29;;;;;;;1.07;0.93;;;22.00;45.90;;;;;;4957826;28;20481;-73
2023/10/21 05:57:54;;;;;;;0.90;0.90;;;22.00;45.80;;;;;;4961640;28;20491;-73
2023/10/21 06:00:20;;;;;;;1.10;1.00;;;22.10;45.90;;;;;;4970374;28;20215;-74
2023/10/21 06:02:46;;;;;;;1.07;0.97;;;22.10;45.80;;;;;;4971200;28;20220;-76
2023/10/21 06:05:14;;;;;;;1.73;1.03;;;22.10;45.90;;;;;;4969892;28;20244;-74
2023/10/21 06:07:40;;;;;;;1.00;0.90;;;22.10;45.80;;;;;;4966037;28;20283;-76
2023/10/21 06:10:06;;;;;;;1.40;1.30;;;22.10;45.90;;;;;;4970499;28;20443;-74
2023/10/21 06:12:35;;;;;;;1.07;0.97;;;22.10;45.90;;;;;;4972689;28;20453;-74
2023/10/21 06:15:01;;;;;;;3.93;1.00;;;22.10;46.00;;;;;;4975795;28;20454;-75
2023/10/21 06:17:26;;;;;;;1.10;1.00;;;22.10;45.90;;;;;;4978090;28;20462;-74
2023/10/21 06:19:52;;;;;;;1.13;1.03;;;22.10;45.90;;;;;;4976163;28;20349;-75
2023/10/21 06:22:18;;;;;;;1.50;1.40;;;22.10;46.00;;;;;;4974387;28;20239;-76
2023/10/21 06:24:45;;;;;;;37.83;6.30;;;22.10;45.90;;;;;;4972486;28;20263;-76
2023/10/21 06:27:11;;;;;;;12.27;3.63;;;22.10;46.00;;;;;;4981397;28;20462;-76
2023/10/21 06:29:36;;;;;;;28.00;5.10;;;22.10;45.90;;;;;;4976787;28;20800;-75
2023/10/21 06:32:04;;;;;;;34.40;5.53;;;22.10;45.80;;;;;;4978317;28;20456;-77
2023/10/21 06:34:30;;;;;;;32.80;6.57;;;22.10;45.80;;;;;;4973111;28;20997;-75
2023/10/21 06:36:55;;;;;;;15.70;4.40;;;22.10;45.80;;;;;;4960512;28;20468;-75
2023/10/21 06:39:21;;;;;;;7.87;1.90;;;22.10;45.70;;;;;;4966316;28;20709;-74
2023/10/21 06:41:47;;;;;;;8.27;1.90;;;22.10;45.80;;;;;;4971137;28;20606;-76
2023/10/21 06:44:15;;;;;;;7.60;2.23;;;22.20;45.90;;;;;;4960299;28;20229;-76
2023/10/21 06:46:41;;;;;;;5.83;2.20;;;22.10;45.80;;;;;;4959860;28;20224;-75
2023/10/21 06:49:07;;;;;;;10.47;2.00;;;22.10;45.80;;;;;;4961285;28;22085;-75
2023/10/21 06:51:32;;;;;;;4.93;2.80;;;22.10;45.90;;;;;;4963949;28;20221;-73
2023/10/21 06:53:58;;;;;;;7.60;2.50;;;22.10;45.80;;;;;;4956109;28;20226;-77
2023/10/21 06:56:24;;;;;;;5.10;2.00;;;22.10;45.90;;;;;;4961489;28;20820;-75
2023/10/21 06:58:49;;;;;;;5.03;1.80;;;22.10;45.90;;;;;;4963581;28;21258;-76
2023/10/21 07:01:15;;;;;;;4.30;1.80;;;22.10;45.90;;;;;;4964574;28;20227;-77
2023/10/21 07:03:41;;;;;;;4.47;2.07;;;22.10;45.90;;;;;;4962201;28;20320;-75
2023/10/21 07:06:07;;;;;;;6.70;2.37;;;22.10;45.90;;;;;;4958607;28;20240;-75
2023/10/21 07:08:35;;;;;;;6.07;1.67;;;22.10;45.90;;;;;;4967313;28;20217;-76
2023/10/21 07:11:02;;;;;;;4.83;1.73;;;22.10;45.90;;;;;;4970418;28;20243;-74
2023/10/21 07:13:28;;;;;;;11.30;2.10;;;22.10;46.00;;;;;;4969639;28;20490;-75
2023/10/21 07:15:54;;;;;;;5.90;1.80;;;22.10;45.90;;;;;;4969302;28;20454;-76
2023/10/21 07:18:20;;;;;;;6.07;1.90;;;22.10;45.80;;;;;;4974427;28;21000;-74
2023/10/21 07:20:46;;;;;;;4.03;1.50;;;22.10;45.90;;;;;;4971057;28;20228;-76
2023/10/21 07:23:15;;;;;;;12.07;1.80;;;22.10;45.80;;;;;;4971011;28;20236;-77
2023/10/21 07:25:42;;;;;;;3.50;1.90;;;22.10;45.80;;;;;;4972085;28;20581;-78
2023/10/21 07:28:07;;;;;;;2.70;1.97;;;22.20;45.90;;;;;;4972208;28;20570;-75
2023/10/21 07:30:33;;;;;;;3.43;1.50;;;22.20;45.80;;;;;;4967884;28;20493;-75
2023/10/21 07:33:00;;;;;;;3.50;1.70;;;22.20;45.90;;;;;;4973818;28;20734;-74
2023/10/21 07:35:26;;;;;;;2.90;1.60;;;22.20;45.90;;;;;;4960261;28;20228;-75
2023/10/21 07:37:54;;;;;;;2.77;1.60;;;22.20;45.90;;;;;;4961584;28;20478;-74
2023/10/21 07:40:20;;;;;;;2.57;1.60;;;22.10;45.80;;;;;;4958527;28;20509;-76
2023/10/21 07:42:46;;;;;;;5.10;1.40;;;22.10;46.50;;;;;;4958741;28;21005;-75
2023/10/21 07:45:14;;;;;;;6.93;2.10;;;22.10;45.80;;;;;;4961601;28;20454;-75
2023/10/21 07:47:40;;;;;;;5.27;1.60;;;22.10;45.80;;;;;;4964874;28;20257;-73
2023/10/21 07:50:10;;;;;;;3.57;1.30;;;22.10;45.80;;;;;;4973636;28;20949;-74
2023/10/21 07:52:36;;;;;;;4.07;1.87;;;22.10;45.80;;;;;;4976978;28;20830;-76
2023/10/21 07:55:03;;;;;;;1.10;1.00;;;22.10;45.80;;;;;;4971174;28;20458;-84
2023/10/21 07:57:29;;;;;;;3.00;1.60;;;22.10;45.70;;;;;;4971077;28;20963;-82
2023/10/21 07:59:54;;;;;;;1.97;1.30;;;22.20;45.80;;;;;;4959913;28;20448;-85
2023/10/21 08:02:21;;;;;;;2.20;1.50;;;22.20;45.80;;;;;;4969743;28;20232;-80
2023/10/21 08:04:47;;;;;;;4.40;1.30;;;22.20;45.80;;;;;;4967737;28;20287;-80
2023/10/21 08:07:12;;;;;;;4.47;1.20;;;22.20;45.80;;;;;;4968764;28;20479;-80
2023/10/21 08:09:38;;;;;;;1.77;1.47;;;22.20;45.70;;;;;;4945545;28;20744;-77
2023/10/21 08:12:04;;;;;;;3.67;1.37;;;22.20;45.80;;;;;;4955372;28;20220;-78
2023/10/21 08:14:31;;;;;;;2.60;1.60;;;22.20;45.80;;;;;;4951277;28;20237;-74
2023/10/21 08:16:58;;;;;;;2.80;1.60;;;22.20;45.80;;;;;;4954551;28;21561;-80
2023/10/21 08:19:24;;;;;;;2.27;1.27;;;22.20;45.80;;;;;;4961657;28;20481;-78
2023/10/21 08:21:50;;;;;;;3.10;1.17;;;22.20;45.80;;;;;;4952320;28;20566;-77
2023/10/21 08:24:15;;;;;;;1.80;1.50;;;22.20;45.80;;;;;;4960533;28;21023;-76
2023/10/21 08:26:41;;;;;;;1.93;1.03;;;22.20;45.80;;;;;;4959032;28;20224;-76
2023/10/21 08:29:10;;;;;;;3.33;1.00;;;22.20;45.90;;;;;;4964376;28;20804;-76
2023/10/21 08:31:35;;;;;;;4.50;1.30;;;22.20;45.90;;;;;;4959987;28;20219;-76
2023/10/21 08:34:01;;;;;;;1.50;1.00;;;22.20;45.90;;;;;;4955536;28;20530;-76
2023/10/21 08:36:26;;;;;;;3.80;1.13;;;22.20;46.00;;;;;;4956286;28;20240;-76
2023/10/21 08:38:52;;;;;;;1.60;1.50;;;22.20;46.00;;;;;;4948450;28;20228;-76
2023/10/21 08:41:17;;;;;;;4.13;1.30;;;22.20;46.00;;;;;;4962504;28;20586;-76
2023/10/21 08:43:48;;;;;;;1.20;1.10;;;22.20;46.00;;;;;;4954810;28;20243;-76
2023/10/21 08:46:15;;;;;;;2.40;1.00;;;22.20;46.00;;;;;;4955784;28;20799;-77
2023/10/21 08:48:44;;;;;;;3.20;1.17;;;22.20;46.00;;;;;;4953900;28;20980;-76
2023/10/21 08:51:13;;;;;;;1.30;1.10;;;22.20;46.00;;;;;;4961619;28;20469;-76
2023/10/21 08:53:41;;;;;;;2.70;1.00;;;22.20;46.70;;;;;;4960886;28;20624;-75
2023/10/21 08:56:06;;;;;;;1.87;1.00;;;22.20;46.00;;;;;;4959469;28;20467;-76
2023/10/21 08:58:32;;;;;;;1.40;1.07;;;22.20;46.00;;;;;;4964355;28;20927;-76
2023/10/21 09:00:59;;;;;;;1.80;1.47;;;22.20;46.00;;;;;;4962284;28;20300;-77
2023/10/21 09:03:25;;;;;;;2.17;1.10;;;22.20;46.00;;;;;;4963482;28;20263;-77
2023/10/21 09:06:12;;;;;;;2.40;1.10;;;22.20;46.00;;;;;;4954976;28;20830;-77
2023/10/21 09:08:40;;;;;;;2.17;1.00;;;22.20;46.00;;;;;;4958500;28;20469;-75
2023/10/21 09:11:06;;;;;;;1.10;1.00;;;22.20;46.00;;;;;;4963197;28;20437;-76
2023/10/21 09:13:34;;;;;;;1.87;0.97;;;22.20;46.00;;;;;;4957033;28;20486;-74
2023/10/21 09:16:17;;;;;;;2.43;1.10;;;22.20;46.00;;;;;;4952943;28;21099;-79
2023/10/21 09:19:01;;;;;;;2.50;0.80;;;22.20;45.90;;;;;;4951629;28;20464;-79
2023/10/21 09:21:44;;;;;;;2.90;0.90;;;22.20;45.90;;;;;;4961552;28;20470;-80
2023/10/21 09:24:20;;;;;;;0.90;0.80;;;22.20;45.90;;;;;;4960465;28;20487;-80
2023/10/21 09:26:47;;;;;;;4.63;1.93;;;22.20;45.80;;;;;;4951324;28;20861;-80
2023/10/21 09:29:20;;;;;;;1.17;0.83;;;22.20;45.80;;;;;;4956984;28;20486;-79
2023/10/21 09:31:51;;;;;;;1.00;0.90;;;22.20;45.70;;;;;;4956382;28;20832;-80
2023/10/21 09:34:33;;;;;;;0.90;0.80;;;22.20;45.70;;;;;;4959261;28;20459;-80
2023/10/21 09:36:59;;;;;;;2.33;1.00;;;22.20;45.60;;;;;;4954935;28;20558;-78
2023/10/21 09:39:32;;;;;;;1.00;0.70;;;22.20;45.70;;;;;;4955308;28;20462;-76
2023/10/21 09:42:01;;;;;;;3.57;1.70;;;22.20;45.50;;;;;;4959062;28;21052;-77
2023/10/21 09:44:27;;;;;;;3.03;1.10;;;22.20;45.50;;;;;;4955711;28;20596;-75
2023/10/21 09:46:55;;;;;;;2.00;0.77;;;22.20;45.50;;;;;;4960888;28;20481;-78
2023/10/21 09:49:23;;;;;;;15.03;1.97;;;22.20;45.30;;;;;;4960015;28;20688;-78
2023/10/21 09:52:53;;;;;;;3.53;0.80;;;22.30;45.00;;;;;;5039585;27;1225128;-76
2023/10/21 09:55:25;;;;;;;6.17;1.33;;;22.30;45.60;;;;;;5058037;27;20450;-77
2023/10/21 09:57:55;;;;;;;5.43;1.37;;;22.30;45.50;;;;;;5051906;28;20526;-77
2023/10/21 10:00:22;;;;;;;1.87;1.20;;;22.30;45.50;;;;;;5055739;27;20527;-77
2023/10/21 10:02:49;;;;;;;4.97;1.60;;;22.30;45.40;;;;;;5055631;27;20458;-80
2023/10/21 10:05:18;;;;;;;15.63;3.67;;;22.30;46.20;;;;;;5059197;27;20942;-77
2023/10/21 10:07:47;;;;;;;11.13;1.90;;;22.30;45.50;;;;;;5062435;27;20922;-80
2023/10/21 10:10:16;;;;;;;8.53;2.13;;;22.40;45.50;;;;;;5056446;27;20502;-76
2023/10/21 10:12:52;;;;;;;10.00;2.37;;;22.40;45.50;;;;;;5059387;28;20569;-78
2023/10/21 10:15:37;;;;;;;10.13;2.20;;;22.50;45.50;;;;;;5061541;27;20477;-75
2023/10/21 10:18:24;;;;;;;79.50;8.97;;;22.50;45.40;;;;;;5062437;27;20564;-79
2023/10/21 10:20:52;;;;;;;48.70;8.53;;;22.50;45.30;;;;;;5063988;27;20520;-79
2023/10/21 10:23:24;;;;;;;25.70;5.30;;;22.60;45.50;;;;;;5065831;27;20477;-79
2023/10/21 10:25:51;;;;;;;32.03;5.80;;;22.60;45.30;;;;;;5057262;27;20453;-79
2023/10/21 10:28:25;;;;;;;18.70;5.03;;;22.70;45.50;;;;;;5058732;27;20470;-78
2023/10/21 10:30:53;;;;;;;10.07;3.43;;;22.70;45.40;;;;;;5066405;27;20476;-79
2023/10/21 10:33:23;;;;;;;10.53;2.60;;;22.70;45.40;;;;;;5057375;27;20473;-80
2023/10/21 10:35:54;;;;;;;4.23;2.97;;;22.80;45.50;;;;;;5055616;27;21058;-78
2023/10/21 10:38:25;;;;;;;6.27;2.13;;;22.80;45.50;;;;;;5054322;27;20490;-80
2023/10/21 10:41:06;;;;;;;5.57;2.40;;;22.80;45.50;;;;;;5062245;27;20869;-79
2023/10/21 10:43:32;;;;;;;6.83;1.90;;;22.80;45.40;;;;;;5063745;27;20490;-80
2023/10/21 10:46:00;;;;;;;4.77;1.60;;;22.90;45.50;;;;;;5053535;27;21289;-79
2023/10/21 10:48:29;;;;;;;6.30;1.50;;;22.90;45.30;;;;;;5059237;27;20457;-80
2023/10/21 10:51:04;;;;;;;7.87;1.83;;;22.90;45.30;;;;;;5062819;28;20521;-79
2023/10/21 10:53:30;;;;;;;18.10;2.47;;;22.90;45.20;;;;;;5060698;27;20563;-80
2023/10/21 10:55:55;;;;;;;26.80;3.03;;;22.90;45.10;;;;;;5057738;27;20692;-79
2023/10/21 10:58:23;;;;;;;31.13;2.50;;;23.00;45.10;;;;;;5056421;28;20217;-79
2023/10/21 11:00:50;;;;;;;30.67;3.43;;;23.00;45.00;;;;;;5058395;27;20229;-78
2023/10/21 11:03:27;;;;;;;31.20;2.60;;;23.00;44.80;;;;;;5050714;27;20457;-80
2023/10/21 11:05:55;;;;;;;31.50;3.40;;;23.00;44.80;;;;;;5050014;28;20476;-79
2023/10/21 11:08:21;;;;;;;30.80;2.27;;;23.00;44.70;;;;;;5061822;28;20520;-79
2023/10/21 11:10:47;;;;;;;17.20;2.60;;;23.00;44.60;;;;;;5048675;28;20968;-80
2023/10/21 11:13:13;;;;;;;21.40;2.57;;;23.00;44.50;;;;;;5048224;28;20465;-81
2023/10/21 11:15:44;;;;;;;30.73;3.70;;;23.10;44.50;;;;;;5051836;28;20656;-82
2023/10/21 11:18:11;;;;;;;19.50;3.17;;;23.10;44.50;;;;;;5060848;28;20229;-79
2023/10/21 11:20:47;;;;;;;21.53;2.70;;;23.10;44.40;;;;;;5052679;28;20459;-78
2023/10/21 11:23:12;;;;;;;7.13;1.60;;;23.10;44.30;;;;;;5055458;28;20492;-79
2023/10/21 11:25:41;;;;;;;5.77;1.43;;;23.10;44.30;;;;;;5047015;28;20530;-82
2023/10/21 11:28:06;;;;;;;3.67;1.47;;;23.10;44.50;;;;;;5056211;28;20213;-78
2023/10/21 11:30:33;;;;;;;3.50;1.27;;;23.10;44.70;;;;;;5047697;28;20472;-79
2023/10/21 11:33:09;;;;;;;4.77;1.40;;;23.00;44.70;;;;;;5050244;28;20237;-81
2023/10/21 11:35:45;;;;;;;3.53;1.10;;;23.00;44.80;;;;;;5051711;28;20482;-79
2023/10/21 11:38:19;;;;;;;1.60;0.90;;;23.00;44.90;;;;;;5044973;28;20956;-77
2023/10/21 11:40:45;;;;;;;1.87;0.90;;;23.00;44.80;;;;;;5042523;27;20459;-77
2023/10/21 11:43:13;;;;;;;2.07;1.23;;;23.00;44.90;;;;;;5051383;28;20807;-76
2023/10/21 11:45:39;;;;;;;3.57;1.00;;;23.00;44.80;;;;;;5050897;27;20462;-68
2023/10/21 11:48:09;;;;;;;1.07;0.97;;;23.00;44.90;;;;;;5055058;28;20450;-71
2023/10/21 11:50:42;;;;;;;1.50;1.00;;;23.00;44.80;;;;;;5050039;28;20462;-69
2023/10/21 11:53:08;;;;;;;1.53;0.80;;;23.00;44.80;;;;;;5048697;28;21430;-71
2023/10/21 12:04:22;;;;;;;6.87;1.50;;;22.90;44.70;;;;;;5048235;28;20540;-69
2023/10/21 12:22:12;;;;;;;16.13;3.60;;;23.00;44.40;;;;;;5053266;28;20466;-73
2023/10/21 12:30:42;;;;;;;14.13;2.07;;;22.90;44.30;;;;;;5059177;27;20503;-71
2023/10/21 12:38:23;;;;;;;5.43;1.73;;;22.90;44.30;;;;;;5054038;28;20442;-69
2023/10/21 12:43:36;;;;;;;2.70;1.10;;;22.90;43.70;;;;;;5048113;28;20941;-68
2023/10/21 12:46:17;;;;;;;3.10;1.10;;;22.90;43.20;;;;;;5048225;28;20443;-70
2023/10/21 12:48:57;;;;;;;1.30;0.80;;;22.90;42.80;;;;;;5056381;28;20229;-70
2023/10/21 12:51:24;;;;;;;3.10;1.00;;;22.90;42.00;;;;;;5045556;28;20590;-69
2023/10/21 12:53:50;;;;;;;1.47;0.90;;;22.80;41.70;;;;;;5047818;28;20951;-68
2023/10/21 12:56:15;;;;;;;28.73;2.73;;;22.80;41.60;;;;;;5052686;28;20438;-68
2023/10/21 12:58:42;;;;;;;2.03;1.33;;;22.80;40.90;;;;;;5058535;27;20213;-68
2023/10/21 13:01:19;;;;;;;2.30;0.90;;;22.80;40.40;;;;;;5048908;28;20730;-67
2023/10/21 13:03:45;;;;;;;1.43;0.83;;;22.80;40.10;;;;;;5055754;28;20572;-70
2023/10/21 13:06:12;;;;;;;1.70;1.10;;;22.70;39.90;;;;;;5049138;28;20826;-70
2023/10/21 13:08:37;;;;;;;3.53;1.00;;;22.70;40.10;;;;;;5058551;27;20217;-70
2023/10/21 13:11:05;;;;;;;1.40;0.83;;;22.70;39.80;;;;;;5052904;27;20927;-72
2023/10/21 13:13:35;;;;;;;2.77;0.90;;;22.70;39.60;;;;;;5051595;28;20234;-69
2023/10/21 13:16:03;;;;;;;1.57;1.10;;;22.70;39.40;;;;;;5057330;27;20450;-73
2023/10/21 13:18:29;;;;;;;1.80;0.90;;;22.70;39.20;;;;;;5050509;28;20471;-72
2023/10/21 13:20:55;;;;;;;1.03;0.83;;;22.70;39.50;;;;;;5055206;27;20528;-69
2023/10/21 13:23:20;;;;;;;1.00;0.80;;;22.70;39.90;;;;;;5053680;28;20224;-69
2023/10/21 13:25:46;;;;;;;1.83;1.00;;;22.70;40.20;;;;;;5048612;28;20210;-68